Home   Weather   Spain   Sevilla   Past weeks
Flag for Spain

Past Weather in Sevilla, Seville, Spain — May 2020

Currently: 68 °F. Sunny. (Weather station: Sevilla / San Pablo, Spain). See more current weather

May 2020 Weather in Sevilla — Graph

°F

High & Low Weather Summary for May 2020

 TemperatureHumidityPressure
High99 °F (May 23, 5:30 pm)100% (May 1, 5:00 am)30.21 "Hg (May 1, 5:00 am)
Low54 °F (May 13, 6:00 am)10% (May 25, 6:30 pm)29.65 "Hg (May 13, 5:00 pm)
Average72 °F59%29.98 "Hg
* Reported May 1 12:00 am — May 31 11:30 pm, Sevilla. Weather by CustomWeather, © 2024

Note: Actual official high and low records may vary slightly from our data, if they occured in-between our weather recording intervals... More about our weather records

Sevilla Weather History for May 1, 2020

Scroll right to see more
 ConditionsComfort  
Time TempWeatherWind HumidityBarometerVisibility
12:00 am
Fri, May 1
64 °FClear.2 mph83%30.18 "Hg10 mi
12:30 am63 °FClear.2 mph83%30.18 "Hg10 mi
1:00 am63 °FClear.2 mph83%30.18 "Hg10 mi
1:30 am63 °FPassing clouds.5 mph83%30.18 "HgN/A
2:00 am61 °FPassing clouds.5 mph88%30.18 "HgN/A
2:30 am61 °FClear.7 mph94%30.18 "Hg10 mi
3:00 am59 °FClear.2 mph94%30.18 "Hg10 mi
3:30 am59 °FClear.No wind94%30.18 "Hg10 mi
4:00 am59 °FClear.No wind94%30.18 "Hg10 mi
4:30 am59 °FClear.No wind94%30.18 "Hg10 mi
5:00 am57 °FClear.No wind100%30.18 "Hg10 mi
5:30 am57 °FCool.1 mph94%30.18 "Hg6 mi
6:00 am57 °FClear.No wind94%30.18 "Hg10 mi
6:30 am55 °FClear.3 mph100%30.18 "Hg10 mi
7:00 am57 °FClear.1 mph94%30.18 "Hg10 mi
7:30 am57 °FSunny.1 mph94%30.18 "Hg10 mi
8:00 am55 °FCool.3 mph100%30.18 "Hg5 mi
8:30 am57 °FSunny.No wind94%30.21 "Hg10 mi
9:00 am59 °FSunny.2 mph94%30.21 "Hg10 mi
10:00 am64 °FPassing clouds.5 mph78%30.21 "HgN/A
10:30 am66 °FPassing clouds.3 mph73%30.21 "HgN/A
11:00 am68 °FSunny.2 mph73%30.21 "Hg10 mi
11:30 am70 °FSunny.1 mph64%30.21 "Hg10 mi
12:00 pm72 °FSunny.1 mph57%30.21 "Hg10 mi
12:30 pm73 °FSunny.1 mph57%30.21 "Hg10 mi
1:00 pm73 °FSunny.2 mph53%30.21 "Hg10 mi
1:30 pm73 °FSunny.2 mph50%30.21 "Hg10 mi
2:00 pm73 °FSunny.3 mph50%30.18 "Hg10 mi
2:30 pm77 °FSunny.2 mph47%30.18 "Hg10 mi
3:00 pm77 °FSunny.2 mph47%30.18 "Hg10 mi
3:30 pm77 °FPassing clouds.7 mph44%30.18 "HgN/A
4:00 pm79 °FSunny.5 mph45%30.15 "Hg10 mi
4:30 pm79 °FSunny.2 mph45%30.15 "Hg10 mi
5:00 pm81 °FSunny.3 mph42%30.15 "Hg10 mi
5:30 pm82 °FSunny.3 mph42%30.12 "Hg10 mi
6:00 pm82 °FSunny.1 mph42%30.12 "Hg10 mi
6:30 pm82 °FSunny.2 mph40%30.12 "Hg10 mi
7:00 pm82 °FPassing clouds.5 mph42%30.12 "HgN/A
7:30 pm81 °FPassing clouds.8 mph45%30.12 "HgN/A
8:00 pm81 °FPassing clouds.7 mph45%30.12 "HgN/A
8:30 pm79 °FSunny.12 mph54%30.12 "Hg10 mi
9:00 pm77 °FSunny.8 mph57%30.15 "Hg10 mi
9:30 pm77 °FClear.8 mph57%30.15 "Hg10 mi
10:00 pm73 °FClear.7 mph69%30.15 "Hg10 mi
10:30 pm73 °FClear.9 mph69%30.15 "Hg10 mi
11:00 pm72 °FClear.7 mph73%30.18 "Hg10 mi
11:30 pm70 °FClear.7 mph78%30.18 "Hg10 mi
Weather by CustomWeather, © 2024

See weather overview